Time;durP1;ratioP1;P1;durP2;ratioP2;P2;SDS_P1;SDS_P2;PMS_P1;PMS_P2;Temp;Humidity;BMP_temperature;BMP_pressure;BME280_temperature;BME280_humidity;BME280_pressure;Samples;Min_cycle;Max_cycle;Signal;HPM_P1;HPM_P2
2023/04/06 00:01:26;;;;;;;13.30;11.10;;;;;;;7.44;100.00;99169.60;107349;1274;22507;-70
2023/04/06 00:03:57;;;;;;;15.60;10.80;;;;;;;7.47;100.00;99169.23;107364;1274;25347;-71
2023/04/06 00:06:27;;;;;;;13.60;11.00;;;;;;;7.52;100.00;99162.48;107235;1274;26461;-70
2023/04/06 00:08:56;;;;;;;12.60;10.00;;;;;;;7.52;100.00;99162.65;107242;1274;25328;-71
2023/04/06 00:11:25;;;;;;;13.70;10.30;;;;;;;7.50;100.00;99156.15;107168;1274;26477;-70
2023/04/06 00:13:53;;;;;;;13.60;11.30;;;;;;;7.47;100.00;99154.67;107238;1256;23615;-70
2023/04/06 00:16:22;;;;;;;14.00;10.60;;;;;;;7.44;100.00;99150.27;107281;1274;25506;-71
2023/04/06 00:18:52;;;;;;;14.60;10.20;;;;;;;7.43;100.00;99149.95;107288;1274;25330;-69
2023/04/06 00:21:20;;;;;;;14.60;10.00;;;;;;;7.48;100.00;99148.34;107292;1274;22542;-69
2023/04/06 00:23:49;;;;;;;14.10;10.00;;;;;;;7.50;100.00;99144.18;107371;1263;24405;-68
2023/04/06 00:26:17;;;;;;;13.70;10.80;;;;;;;7.54;100.00;99144.73;107355;1274;25281;-70
2023/04/06 00:28:46;;;;;;;15.00;10.40;;;;;;;7.52;100.00;99138.65;107377;1274;25331;-70
2023/04/06 00:31:15;;;;;;;14.00;10.30;;;;;;;7.52;100.00;99140.39;107223;1274;23250;-70
2023/04/06 00:33:44;;;;;;;13.50;10.20;;;;;;;7.55;100.00;99136.38;107249;1274;23705;-70
2023/04/06 00:36:12;;;;;;;11.40;8.90;;;;;;;7.54;100.00;99127.02;107232;1274;22519;-69
2023/04/06 00:38:41;;;;;;;13.10;9.60;;;;;;;7.52;100.00;99135.08;107365;1274;25330;-69
2023/04/06 00:41:09;;;;;;;14.60;10.60;;;;;;;7.51;100.00;99135.57;107459;1274;25427;-69
2023/04/06 00:43:37;;;;;;;15.20;9.90;;;;;;;7.53;100.00;99132.64;107054;1275;24380;-69
2023/04/06 00:46:06;;;;;;;12.80;9.60;;;;;;;7.57;100.00;99125.45;107351;1274;25375;-69
2023/04/06 00:48:36;;;;;;;14.50;10.70;;;;;;;7.62;100.00;99128.45;107331;1274;23001;-69
2023/04/06 00:51:04;;;;;;;12.40;10.20;;;;;;;7.64;100.00;99130.73;107312;1274;22635;-69
2023/04/06 00:53:32;;;;;;;12.80;10.20;;;;;;;7.67;100.00;99132.36;107370;1274;22531;-70
2023/04/06 00:56:01;;;;;;;14.10;11.20;;;;;;;7.68;100.00;99135.78;107469;1274;26465;-70
2023/04/06 00:58:37;;;;;;;14.70;10.30;;;;;;;7.72;100.00;99131.98;107414;1274;25217;-71
2023/04/06 01:01:07;;;;;;;15.50;10.20;;;;;;;7.74;100.00;99130.91;107371;1274;24367;-71
2023/04/06 01:03:36;;;;;;;11.90;9.30;;;;;;;7.75;100.00;99126.05;107424;1274;22728;-71
2023/04/06 01:06:05;;;;;;;14.50;9.80;;;;;;;7.74;100.00;99125.13;107339;1274;25347;-71
2023/04/06 01:08:38;;;;;;;14.40;9.90;;;;;;;7.73;100.00;99122.08;107475;1274;25309;-72
2023/04/06 01:11:15;;;;;;;12.40;10.10;;;;;;;7.69;100.00;99123.59;107407;1274;25309;-72
2023/04/06 01:13:43;;;;;;;14.70;10.50;;;;;;;7.66;100.00;99123.90;107356;1274;25492;-72
2023/04/06 01:16:20;;;;;;;12.70;10.10;;;;;;;7.65;100.00;99123.20;107402;1274;24377;-71
2023/04/06 01:19:00;;;;;;;15.10;9.90;;;;;;;7.67;100.00;99120.83;107225;1274;226638;-70
2023/04/06 01:22:58;;;;;;;14.40;10.70;;;;;;;7.70;100.00;99122.99;104023;1305;545939;-70
2023/04/06 01:25:27;;;;;;;13.20;10.20;;;;;;;7.67;100.00;99115.08;106459;1288;23257;-71
2023/04/06 01:28:08;;;;;;;13.20;9.90;;;;;;;7.66;100.00;99113.77;107762;1288;25390;-70
2023/04/06 01:30:52;;;;;;;13.90;10.40;;;;;;;7.67;100.00;99108.20;107019;1288;25351;-70
2023/04/06 01:33:59;;;;;;;12.90;10.10;;;;;;;7.66;100.00;99105.42;106406;1288;25552;-71
2023/04/06 01:36:27;;;;;;;12.60;10.10;;;;;;;7.67;100.00;99108.08;106183;1286;296898;-72
2023/04/06 01:39:02;;;;;;;12.70;9.60;;;;;;;7.68;100.00;99108.95;106274;1286;25481;-71
2023/04/06 01:41:35;;;;;;;13.10;10.20;;;;;;;7.67;100.00;99112.04;106666;1286;26493;-71
2023/04/06 01:44:03;;;;;;;14.80;11.10;;;;;;;7.68;100.00;99105.02;106506;1286;23767;-72
2023/04/06 01:46:32;;;;;;;13.90;10.50;;;;;;;7.66;100.00;99110.19;106631;1286;22840;-72
2023/04/06 01:49:03;;;;;;;14.10;10.10;;;;;;;7.65;100.00;99113.61;106571;1286;25392;-71
2023/04/06 01:51:38;;;;;;;13.50;10.00;;;;;;;7.66;100.00;99108.95;106309;1286;25277;-71
2023/04/06 01:54:09;;;;;;;13.20;10.90;;;;;;;7.65;100.00;99103.95;106474;1286;25356;-71
2023/04/06 01:56:51;;;;;;;13.60;11.20;;;;;;;7.63;100.00;99112.52;106635;1286;22553;-71
2023/04/06 01:59:53;;;;;;;13.50;10.60;;;;;;;7.65;100.00;99105.16;106610;1286;25350;-73
2023/04/06 02:02:26;;;;;;;14.10;11.00;;;;;;;7.68;100.00;99102.88;106620;1286;22522;-72
2023/04/06 02:04:59;;;;;;;15.40;10.30;;;;;;;7.70;100.00;99107.11;106490;1286;23417;-72
2023/04/06 02:07:29;;;;;;;14.10;10.90;;;;;;;7.71;100.00;99103.13;106567;1286;25340;-71
2023/04/06 02:09:57;;;;;;;13.60;10.40;;;;;;;7.70;100.00;99092.75;106536;1286;22531;-72
2023/04/06 02:12:33;;;;;;;15.30;11.00;;;;;;;7.68;100.00;99097.42;106683;1286;22527;-69
2023/04/06 02:15:07;;;;;;;14.40;10.80;;;;;;;7.68;100.00;99094.92;106456;1286;22530;-70
2023/04/06 02:17:38;;;;;;;16.70;11.50;;;;;;;7.69;100.00;99088.96;106614;1263;22527;-71
2023/04/06 02:20:07;;;;;;;17.40;11.80;;;;;;;7.72;100.00;99082.73;106647;1286;25441;-71
2023/04/06 02:22:40;;;;;;;15.00;10.70;;;;;;;7.73;100.00;99078.06;106492;1286;22549;-71
2023/04/06 02:25:09;;;;;;;14.60;10.50;;;;;;;7.72;100.00;99078.09;106648;1286;22718;-71
2023/04/06 02:27:37;;;;;;;15.70;11.00;;;;;;;7.71;100.00;99074.39;106522;1286;22588;-71
2023/04/06 02:30:07;;;;;;;14.30;10.50;;;;;;;7.74;100.00;99073.48;106640;1286;26137;-71
2023/04/06 02:32:37;;;;;;;15.50;11.00;;;;;;;7.77;100.00;99074.24;106891;1286;26505;-71
2023/04/06 02:35:05;;;;;;;15.70;11.50;;;;;;;7.82;100.00;99076.67;106626;1286;24374;-71
2023/04/06 02:37:36;;;;;;;15.00;10.90;;;;;;;7.84;100.00;99079.66;106788;1286;25389;-71
2023/04/06 02:40:06;;;;;;;17.70;11.80;;;;;;;7.86;100.00;99078.59;106591;1286;24493;-72
2023/04/06 02:42:35;;;;;;;16.60;12.00;;;;;;;7.87;100.00;99083.56;107239;1286;22641;-72
2023/04/06 02:45:05;;;;;;;17.10;11.80;;;;;;;7.90;100.00;99082.98;106637;1286;24388;-71
2023/04/06 02:47:35;;;;;;;15.30;10.90;;;;;;;7.92;100.00;99079.02;106528;1286;24212;-71
2023/04/06 02:50:04;;;;;;;14.50;11.20;;;;;;;7.93;100.00;99080.81;107330;1286;22995;-71
2023/04/06 02:52:34;;;;;;;13.60;11.20;;;;;;;7.94;100.00;99078.33;106375;1286;25211;-70
2023/04/06 02:55:04;;;;;;;14.60;11.60;;;;;;;7.96;100.00;99077.08;106408;1286;26471;-71
2023/04/06 02:57:32;;;;;;;15.90;11.70;;;;;;;7.95;100.00;99079.18;106624;1286;25979;-71
2023/04/06 03:00:01;;;;;;;12.70;10.60;;;;;;;7.96;100.00;99078.60;106326;1286;23049;-70
2023/04/06 03:02:41;;;;;;;16.10;11.20;;;;;;;7.98;100.00;99085.04;106375;1286;22549;-69
2023/04/06 03:05:12;;;;;;;20.10;11.70;;;;;;;8.00;100.00;99085.16;106301;1286;25294;-70
2023/04/06 03:07:42;;;;;;;14.70;11.30;;;;;;;7.99;100.00;99089.81;106593;1286;24237;-70
2023/04/06 03:10:16;;;;;;;14.60;11.00;;;;;;;8.00;100.00;99090.46;106708;1286;24212;-69
2023/04/06 03:12:45;;;;;;;15.90;12.40;;;;;;;8.03;100.00;99097.20;106754;1286;25340;-69
2023/04/06 03:15:23;;;;;;;15.10;12.10;;;;;;;8.03;100.00;99099.10;106668;1286;25475;-70
2023/04/06 03:17:57;;;;;;;15.30;11.50;;;;;;;8.04;100.00;99096.65;106535;1286;24266;-70
2023/04/06 03:20:54;;;;;;;14.20;11.60;;;;;;;8.04;100.00;99096.75;106595;1286;23374;-70
2023/04/06 03:23:32;;;;;;;15.40;11.90;;;;;;;8.03;100.00;99086.02;106528;1286;25322;-70
2023/04/06 03:26:03;;;;;;;16.80;13.30;;;;;;;8.07;100.00;99089.00;106171;1286;25347;-69
2023/04/06 03:28:32;;;;;;;16.40;11.40;;;;;;;8.08;100.00;99087.09;106597;1286;25334;-71
2023/04/06 03:31:08;;;;;;;16.60;11.90;;;;;;;8.10;100.00;99086.52;107184;1279;22705;-70
2023/04/06 03:33:40;;;;;;;16.50;12.70;;;;;;;8.11;100.00;99082.00;107056;1279;22539;-69
2023/04/06 03:36:10;;;;;;;16.20;11.50;;;;;;;8.13;100.00;99080.64;106849;1278;22702;-69
2023/04/06 03:38:47;;;;;;;18.00;12.80;;;;;;;8.16;100.00;99083.85;106784;1278;25245;-70
2023/04/06 03:41:15;;;;;;;14.50;11.80;;;;;;;8.21;100.00;99082.45;107005;1279;25327;-69
2023/04/06 03:43:50;;;;;;;14.30;12.20;;;;;;;8.23;100.00;99078.20;106992;1278;23819;-69
2023/04/06 03:46:19;;;;;;;15.10;10.90;;;;;;;8.24;100.00;99080.54;107042;1278;25195;-69
2023/04/06 03:48:49;;;;;;;14.30;11.10;;;;;;;8.27;100.00;99079.52;107068;1278;22556;-69
2023/04/06 03:51:19;;;;;;;14.70;10.90;;;;;;;8.31;100.00;99084.64;107078;1279;22701;-68
2023/04/06 03:53:48;;;;;;;14.40;11.20;;;;;;;8.33;100.00;99080.61;107108;1279;27386;-68
2023/04/06 03:56:22;;;;;;;14.20;11.80;;;;;;;8.35;100.00;99080.45;107035;1278;25370;-68
2023/04/06 03:58:55;;;;;;;15.00;11.60;;;;;;;8.36;100.00;99080.99;107051;1278;25469;-69
2023/04/06 04:01:25;;;;;;;17.00;11.80;;;;;;;8.40;100.00;99083.59;108417;1278;25414;-68
2023/04/06 04:03:54;;;;;;;15.80;11.70;;;;;;;8.41;100.00;99087.98;107632;1279;25353;-69
2023/04/06 04:06:22;;;;;;;14.60;11.80;;;;;;;8.43;100.00;99087.88;106980;1279;25345;-68
2023/04/06 04:08:51;;;;;;;14.80;12.10;;;;;;;8.48;100.00;99085.81;109507;1279;24231;-68
2023/04/06 04:11:20;;;;;;;15.80;11.40;;;;;;;8.50;100.00;99091.77;107073;1278;24107;-69
2023/04/06 04:13:51;;;;;;;15.70;11.40;;;;;;;8.50;100.00;99086.78;107018;1278;22565;-69
2023/04/06 04:16:21;;;;;;;16.20;11.90;;;;;;;8.51;100.00;99091.59;107049;1278;24350;-69
2023/04/06 04:18:49;;;;;;;16.90;11.50;;;;;;;8.53;100.00;99094.97;107048;1278;25343;-69
2023/04/06 04:21:17;;;;;;;15.60;11.20;;;;;;;8.53;100.00;99093.99;106987;1279;25262;-69
2023/04/06 04:23:50;;;;;;;15.00;11.40;;;;;;;8.54;100.00;99102.84;107125;1279;25504;-69
2023/04/06 04:26:18;;;;;;;16.30;11.60;;;;;;;8.54;100.00;99107.02;107140;1279;26351;-69
2023/04/06 04:28:47;;;;;;;16.80;11.70;;;;;;;8.51;100.00;99109.45;107071;1279;25281;-69
2023/04/06 04:31:21;;;;;;;16.00;12.10;;;;;;;8.54;100.00;99112.11;107003;1279;25338;-69
2023/04/06 04:33:54;;;;;;;16.60;12.70;;;;;;;8.54;100.00;99117.16;106948;1279;22956;-68
2023/04/06 04:36:26;;;;;;;15.40;11.80;;;;;;;8.58;100.00;99116.61;107085;1279;22643;-68
2023/04/06 04:38:56;;;;;;;16.10;11.30;;;;;;;8.60;100.00;99106.95;107274;1279;24002;-69
2023/04/06 04:41:24;;;;;;;14.80;11.20;;;;;;;8.64;100.00;99112.09;107038;1278;22630;-68
2023/04/06 04:43:55;;;;;;;14.20;11.10;;;;;;;8.64;100.00;99114.70;107238;1279;23805;-68
2023/04/06 04:46:25;;;;;;;17.20;11.40;;;;;;;8.64;100.00;99107.48;107031;1279;25954;-68
2023/04/06 04:48:54;;;;;;;15.60;11.80;;;;;;;8.67;100.00;99110.52;106947;1278;22660;-68
2023/04/06 04:51:24;;;;;;;15.80;11.30;;;;;;;8.70;100.00;99108.77;106889;1278;26656;-68
2023/04/06 04:54:07;;;;;;;16.20;11.40;;;;;;;8.75;100.00;99104.91;107123;1278;23323;-68
2023/04/06 04:56:38;;;;;;;16.30;11.60;;;;;;;8.80;100.00;99108.69;107142;1279;25935;-68
2023/04/06 04:59:22;;;;;;;14.70;12.00;;;;;;;8.86;100.00;99108.52;107107;1279;22665;-69
2023/04/06 05:01:56;;;;;;;13.30;10.70;;;;;;;8.90;100.00;99111.71;107008;1279;22958;-68
2023/04/06 05:04:32;;;;;;;16.80;11.00;;;;;;;8.96;100.00;99115.00;107056;1278;25348;-69
2023/04/06 05:07:08;;;;;;;14.20;10.50;;;;;;;9.05;100.00;99115.03;107055;1278;25227;-68
2023/04/06 05:09:43;;;;;;;15.60;10.60;;;;;;;9.13;100.00;99109.80;106995;1279;26586;-69
2023/04/06 05:12:14;;;;;;;17.10;10.90;;;;;;;9.14;100.00;99110.38;107226;1279;24223;-69
2023/04/06 05:14:51;;;;;;;15.60;10.70;;;;;;;9.17;100.00;99109.61;107049;1279;22520;-68
2023/04/06 05:17:26;;;;;;;15.90;10.60;;;;;;;9.24;100.00;99113.98;106970;1279;25440;-71
2023/04/06 05:19:56;;;;;;;12.80;10.10;;;;;;;9.28;100.00;99113.52;107055;1278;24390;-69
2023/04/06 05:22:26;;;;;;;15.10;10.40;;;;;;;9.31;100.00;99108.95;107384;1280;23902;-69
2023/04/06 05:25:13;;;;;;;13.70;10.30;;;;;;;9.32;100.00;99105.14;106681;1280;24370;-69
2023/04/06 05:27:42;;;;;;;15.40;10.20;;;;;;;9.33;100.00;99110.73;106667;1280;25322;-69
2023/04/06 05:30:28;;;;;;;14.60;10.00;;;;;;;9.35;100.00;99112.30;106686;1280;26503;-69
2023/04/06 05:32:58;;;;;;;13.70;10.40;;;;;;;9.39;100.00;99112.17;106775;1281;22549;-69
2023/04/06 05:35:29;;;;;;;13.60;10.20;;;;;;;9.43;100.00;99109.02;109969;1280;22708;-70
2023/04/06 05:38:00;;;;;;;15.90;10.00;;;;;;;9.50;100.00;99117.72;107813;1280;25281;-69
2023/04/06 05:40:28;;;;;;;15.50;9.90;;;;;;;9.57;100.00;99119.20;107996;1281;25300;-69
2023/04/06 05:42:57;;;;;;;14.30;10.80;;;;;;;9.59;100.00;99113.11;106972;1280;22754;-69
2023/04/06 05:45:26;;;;;;;13.00;10.20;;;;;;;9.62;100.00;99109.19;107335;1281;25337;-69
2023/04/06 05:47:56;;;;;;;13.80;10.30;;;;;;;9.72;100.00;99107.33;107069;1280;25346;-68
2023/04/06 05:50:28;;;;;;;14.70;10.20;;;;;;;9.77;100.00;99110.50;106914;1280;22544;-69
2023/04/06 05:52:57;;;;;;;13.50;10.10;;;;;;;9.81;100.00;99112.01;106896;1280;25378;-69
2023/04/06 05:55:29;;;;;;;15.40;10.20;;;;;;;9.82;100.00;99115.04;106960;1280;25269;-69
2023/04/06 05:58:09;;;;;;;14.20;9.90;;;;;;;9.85;100.00;99117.95;107060;1280;22546;-69
2023/04/06 06:00:37;;;;;;;14.80;10.30;;;;;;;9.81;100.00;99119.95;107033;1280;22610;-69
2023/04/06 06:03:25;;;;;;;15.60;9.80;;;;;;;9.80;100.00;99111.08;107093;1280;24221;-69
2023/04/06 06:06:00;;;;;;;15.10;10.40;;;;;;;9.82;100.00;99111.17;107151;1281;25338;-68
2023/04/06 06:08:36;;;;;;;12.80;10.10;;;;;;;9.80;100.00;99110.86;106716;1280;22528;-69
2023/04/06 06:11:09;;;;;;;17.10;10.60;;;;;;;9.79;100.00;99108.52;106644;1280;22562;-69
2023/04/06 06:13:39;;;;;;;14.10;10.10;;;;;;;9.78;100.00;99111.52;106664;1280;23820;-69
2023/04/06 06:16:07;;;;;;;12.40;10.00;;;;;;;9.77;100.00;99113.00;107024;1281;25330;-69
2023/04/06 06:18:41;;;;;;;15.90;10.50;;;;;;;9.78;100.00;99118.96;107007;1280;22562;-69
2023/04/06 06:21:12;;;;;;;14.10;10.50;;;;;;;9.76;100.00;99119.59;107079;1280;25321;-69
2023/04/06 06:23:42;;;;;;;12.00;9.80;;;;;;;9.73;100.00;99112.65;106974;1280;22536;-69
2023/04/06 06:26:11;;;;;;;15.00;10.40;;;;;;;9.75;100.00;99118.18;106947;1280;22528;-69
2023/04/06 06:28:39;;;;;;;13.20;9.80;;;;;;;9.72;100.00;99110.21;107014;1280;25364;-69
2023/04/06 06:31:10;;;;;;;13.30;9.50;;;;;;;9.73;100.00;99105.79;106951;1280;26134;-69
2023/04/06 06:33:40;;;;;;;14.30;9.80;;;;;;;9.73;100.00;99108.46;107004;1280;22721;-68
2023/04/06 06:36:08;;;;;;;13.10;9.30;;;;;;;9.73;100.00;99108.40;106995;1280;22642;-70
2023/04/06 06:38:38;;;;;;;13.60;9.70;;;;;;;9.80;100.00;99116.02;106889;1280;25347;-69
2023/04/06 06:41:11;;;;;;;14.40;9.70;;;;;;;9.88;100.00;99117.05;109824;1280;22549;-70
2023/04/06 06:43:40;;;;;;;12.00;9.20;;;;;;;9.99;100.00;99106.98;106702;1280;23275;-69
2023/04/06 06:46:10;;;;;;;14.20;9.90;;;;;;;10.15;100.00;99102.80;110057;1280;22481;-70
2023/04/06 06:48:42;;;;;;;15.50;10.10;;;;;;;10.25;100.00;99106.97;110060;1280;22967;-70
2023/04/06 06:51:11;;;;;;;13.20;10.50;;;;;;;10.38;100.00;99107.35;110072;1281;22191;-70
2023/04/06 06:53:41;;;;;;;14.90;10.10;;;;;;;10.54;100.00;99109.71;107835;1280;25291;-70
2023/04/06 06:56:12;;;;;;;13.70;10.00;;;;;;;10.72;100.00;99114.06;106990;1280;26489;-69
2023/04/06 06:58:41;;;;;;;17.10;10.10;;;;;;;10.90;100.00;99108.48;110044;1281;22195;-70
2023/04/06 07:01:10;;;;;;;15.70;10.10;;;;;;;11.01;100.00;99104.38;110043;1280;22211;-70
2023/04/06 07:03:39;;;;;;;12.70;9.90;;;;;;;11.15;100.00;99106.02;107211;1280;22536;-69
2023/04/06 07:06:13;;;;;;;17.10;9.80;;;;;;;11.19;100.00;99108.86;106994;1280;25402;-69
2023/04/06 07:08:42;;;;;;;14.90;9.60;;;;;;;11.14;100.00;99105.38;106943;1280;25338;-69
2023/04/06 07:11:10;;;;;;;13.50;10.00;;;;;;;11.16;100.00;99102.68;106988;1280;22524;-69
2023/04/06 07:13:39;;;;;;;17.90;10.00;;;;;;;11.13;100.00;99102.66;106984;1280;25470;-69
2023/04/06 07:16:07;;;;;;;15.10;10.60;;;;;;;11.15;100.00;99097.45;106905;1280;22616;-69
2023/04/06 07:18:36;;;;;;;12.70;9.50;;;;;;;11.17;100.00;99101.64;106955;1280;25501;-69
2023/04/06 07:21:05;;;;;;;15.00;10.10;;;;;;;11.21;100.00;99103.92;106956;1280;22583;-69
2023/04/06 07:23:33;;;;;;;13.00;9.40;;;;;;;11.23;100.00;99106.03;107096;1278;22563;-69
2023/04/06 07:26:02;;;;;;;17.10;10.20;;;;;;;11.26;100.00;99106.38;107365;1275;23864;-69
2023/04/06 07:28:31;;;;;;;14.20;10.10;;;;;;;11.25;100.00;99104.04;107281;1275;23423;-69
2023/04/06 07:31:01;;;;;;;12.30;9.40;;;;;;;11.20;100.00;99097.34;107422;1275;23239;-69
2023/04/06 07:33:30;;;;;;;16.10;10.50;;;;;;;11.19;100.00;99096.70;107637;1275;25364;-69
2023/04/06 07:35:59;;;;;;;16.90;10.50;;;;;;;11.22;100.00;99102.29;107632;1275;26474;-69
2023/04/06 07:38:29;;;;;;;17.10;10.10;;;;;;;11.17;100.00;99097.27;107455;1275;25535;-69
2023/04/06 07:40:57;;;;;;;15.30;10.20;;;;;;;11.21;100.00;99092.11;107366;1275;25303;-70
2023/04/06 07:43:27;;;;;;;19.40;9.80;;;;;;;11.23;100.00;99094.31;107291;1275;22642;-69
2023/04/06 07:45:57;;;;;;;15.20;10.50;;;;;;;11.31;100.00;99091.43;107133;1275;22517;-68
2023/04/06 07:48:27;;;;;;;14.70;9.90;;;;;;;11.38;100.00;99091.40;107088;1275;25350;-69
2023/04/06 07:51:03;;;;;;;14.60;10.00;;;;;;;11.45;100.00;99085.52;107537;1275;25337;-69
2023/04/06 07:53:31;;;;;;;18.30;10.10;;;;;;;11.49;100.00;99091.85;107208;1275;22752;-69
2023/04/06 07:56:00;;;;;;;15.80;10.10;;;;;;;11.56;100.00;99092.90;107341;1275;25392;-68
2023/04/06 07:58:29;;;;;;;14.20;9.40;;;;;;;11.66;100.00;99092.98;110477;1275;23413;-70
2023/04/06 08:01:03;;;;;;;13.40;9.00;;;;;;;11.71;100.00;99094.13;109710;1263;24331;-68
2023/04/06 08:03:35;;;;;;;14.10;9.70;;;;;;;11.73;100.00;99089.95;107353;1275;26560;-68
2023/04/06 08:06:05;;;;;;;17.90;9.40;;;;;;;11.75;100.00;99092.23;107374;1275;25363;-68
2023/04/06 08:08:40;;;;;;;16.10;9.60;;;;;;;11.75;100.00;99084.60;107338;1275;24193;-68
2023/04/06 08:11:09;;;;;;;15.50;10.00;;;;;;;11.76;100.00;99083.43;107134;1275;25483;-68
2023/04/06 08:13:37;;;;;;;15.90;10.00;;;;;;;11.82;100.00;99084.42;110497;1275;22226;-69
2023/04/06 08:16:08;;;;;;;17.70;10.10;;;;;;;11.82;100.00;99090.76;110505;1275;22373;-70
2023/04/06 08:18:37;;;;;;;14.50;10.00;;;;;;;11.88;100.00;99089.73;110262;1274;22569;-69
2023/04/06 08:21:05;;;;;;;12.70;9.80;;;;;;;11.94;100.00;99086.27;107356;1274;24135;-69
2023/04/06 08:23:34;;;;;;;15.20;8.90;;;;;;;11.96;100.00;99080.72;107519;1274;25895;-69
2023/04/06 08:26:02;;;;;;;17.30;9.50;;;;;;;12.00;100.00;99081.81;107356;1274;23286;-68
2023/04/06 08:28:35;;;;;;;14.30;8.80;;;;;;;12.02;100.00;99085.92;107335;1274;23228;-69
2023/04/06 08:31:07;;;;;;;17.10;9.50;;;;;;;12.02;100.00;99084.14;107391;1274;25389;-68
2023/04/06 08:33:36;;;;;;;15.20;9.70;;;;;;;12.03;100.00;99085.86;107364;1274;25312;-69
2023/04/06 08:36:10;;;;;;;16.50;9.60;;;;;;;12.02;100.00;99080.27;107379;1274;25321;-68
2023/04/06 08:38:39;;;;;;;16.60;9.60;;;;;;;12.07;100.00;99083.17;107361;1274;23460;-68
2023/04/06 08:41:09;;;;;;;16.60;9.70;;;;;;;12.10;100.00;99077.95;107456;1274;25316;-68
2023/04/06 08:43:42;;;;;;;13.50;9.00;;;;;;;12.15;100.00;99080.92;107587;1274;24364;-68
2023/04/06 08:46:11;;;;;;;13.00;8.40;;;;;;;12.14;100.00;99082.30;107369;1274;23264;-68
2023/04/06 08:48:40;;;;;;;15.30;8.60;;;;;;;12.17;100.00;99082.48;107263;1274;22509;-68
2023/04/06 08:51:09;;;;;;;12.10;8.60;;;;;;;12.14;100.00;99080.55;107223;1274;23123;-69
2023/04/06 08:53:38;;;;;;;14.50;8.80;;;;;;;12.17;100.00;99080.89;107298;1274;23463;-68
2023/04/06 08:56:07;;;;;;;18.00;8.90;;;;;;;12.17;100.00;99080.35;107401;1274;25350;-68
2023/04/06 08:58:37;;;;;;;18.10;9.60;;;;;;;12.25;100.00;99080.59;107368;1274;25271;-68
2023/04/06 09:01:10;;;;;;;17.80;8.60;;;;;;;12.28;100.00;99080.54;107492;1274;24224;-68
2023/04/06 09:03:40;;;;;;;18.00;9.90;;;;;;;12.31;100.00;99082.17;107399;1274;23068;-68
2023/04/06 09:06:09;;;;;;;16.30;9.40;;;;;;;12.33;100.00;99080.77;107473;1274;25308;-68
2023/04/06 09:08:39;;;;;;;14.30;9.00;;;;;;;12.34;100.00;99082.39;107233;1274;25392;-69
2023/04/06 09:11:07;;;;;;;16.30;9.20;;;;;;;12.41;100.00;99082.01;107181;1274;24247;-68
2023/04/06 09:13:46;;;;;;;16.30;9.30;;;;;;;12.42;100.00;99081.94;107392;1274;25350;-68
2023/04/06 09:16:16;;;;;;;18.80;9.90;;;;;;;12.41;100.00;99085.87;107336;1274;22514;-68
2023/04/06 09:18:44;;;;;;;14.50;8.80;;;;;;;12.39;100.00;99087.23;107394;1274;25466;-69
2023/04/06 09:21:17;;;;;;;13.10;9.40;;;;;;;12.31;100.00;99083.54;107396;1274;25293;-68
2023/04/06 09:23:48;;;;;;;19.20;10.50;;;;;;;12.29;100.00;99086.47;110559;1274;22291;-69
2023/04/06 09:26:17;;;;;;;18.60;10.70;;;;;;;12.26;100.00;99087.61;110492;1274;22283;-69
2023/04/06 09:28:51;;;;;;;16.90;9.50;;;;;;;12.24;100.00;99090.27;108616;1274;23559;-68
2023/04/06 09:31:24;;;;;;;18.90;10.10;;;;;;;12.27;100.00;99091.09;110485;1274;22324;-69
2023/04/06 09:33:53;;;;;;;18.30;11.00;;;;;;;12.24;100.00;99101.98;110553;1274;22467;-69
2023/04/06 09:36:31;;;;;;;15.90;10.30;;;;;;;12.20;100.00;99107.58;107572;1274;22520;-68
2023/04/06 09:39:04;;;;;;;14.00;10.40;;;;;;;12.18;100.00;99112.20;107393;1267;24294;-68
2023/04/06 09:41:34;;;;;;;14.70;10.60;;;;;;;12.10;100.00;99116.70;107383;1274;22678;-68
2023/04/06 09:44:06;;;;;;;18.80;11.40;;;;;;;11.97;100.00;99127.14;107349;1274;22641;-69
2023/04/06 09:46:36;;;;;;;16.10;10.40;;;;;;;11.89;100.00;99129.01;107499;1274;22573;-69
2023/04/06 09:49:27;;;;;;;17.10;10.10;;;;;;;11.82;100.00;99133.26;107233;1274;22910;-69
2023/04/06 09:52:02;;;;;;;16.00;9.70;;;;;;;11.77;100.00;99134.02;107314;1274;25799;-70
2023/04/06 09:54:31;;;;;;;18.80;10.10;;;;;;;11.79;100.00;99134.92;107347;1274;25462;-68
2023/04/06 09:57:08;;;;;;;15.20;9.90;;;;;;;11.78;100.00;99138.59;107371;1274;22578;-68
2023/04/06 10:00:09;;;;;;;14.90;9.10;;;;;;;11.86;100.00;99145.14;107387;1274;26483;-68
2023/04/06 10:02:59;;;;;;;18.40;8.90;;;;;;;11.89;100.00;99148.60;107477;1274;25299;-68
2023/04/06 10:05:39;;;;;;;13.30;7.70;;;;;;;11.89;100.00;99149.56;107473;1274;22543;-68
2023/04/06 10:08:11;;;;;;;13.10;8.10;;;;;;;11.91;100.00;99150.35;107337;1274;25323;-68
2023/04/06 10:10:39;;;;;;;13.70;8.20;;;;;;;11.83;100.00;99150.20;107301;1274;23861;-68
2023/04/06 10:13:08;;;;;;;13.00;7.90;;;;;;;11.75;100.00;99154.98;107440;1274;26483;-69
2023/04/06 10:15:36;;;;;;;13.90;8.60;;;;;;;11.69;100.00;99159.52;107272;1274;23785;-68
2023/04/06 10:18:04;;;;;;;13.10;8.10;;;;;;;11.59;100.00;99161.28;107204;1274;23364;-70
2023/04/06 10:20:57;;;;;;;14.10;9.00;;;;;;;11.45;100.00;99162.54;107310;1274;25466;-69
2023/04/06 10:24:09;;;;;;;12.40;8.30;;;;;;;11.34;100.00;99165.79;107359;1274;25312;-70
2023/04/06 10:26:38;;;;;;;11.40;8.10;;;;;;;11.26;100.00;99169.81;106746;1283;25482;-70
2023/04/06 10:29:07;;;;;;;12.90;7.80;;;;;;;11.21;100.00;99169.64;107196;1274;23277;-69
2023/04/06 10:31:39;;;;;;;13.80;8.00;;;;;;;11.17;100.00;99177.41;107191;1274;25350;-70
2023/04/06 10:34:08;;;;;;;11.40;7.90;;;;;;;11.16;100.00;99180.05;107287;1274;25356;-70
2023/04/06 10:36:43;;;;;;;14.50;9.00;;;;;;;11.16;100.00;99183.16;107355;1274;25359;-69
2023/04/06 10:39:11;;;;;;;12.00;8.20;;;;;;;11.15;100.00;99185.61;107394;1274;22537;-69
2023/04/06 10:41:46;;;;;;;11.10;7.60;;;;;;;11.15;100.00;99191.51;107374;1274;23474;-69
2023/04/06 10:44:20;;;;;;;11.50;7.50;;;;;;;11.14;100.00;99198.59;110559;1274;22200;-70
2023/04/06 10:46:56;;;;;;;10.60;8.20;;;;;;;11.11;100.00;99203.96;109094;1274;25420;-69
2023/04/06 10:49:24;;;;;;;11.70;7.90;;;;;;;11.08;100.00;99207.09;110562;1274;22218;-70
2023/04/06 10:51:55;;;;;;;10.80;7.90;;;;;;;11.05;100.00;99211.10;110595;1274;23100;-70
2023/04/06 10:54:24;;;;;;;10.60;8.00;;;;;;;11.05;100.00;99211.65;110562;1274;22278;-70
2023/04/06 10:56:53;;;;;;;11.50;7.50;;;;;;;11.08;100.00;99215.48;110567;1274;22673;-70
2023/04/06 10:59:22;;;;;;;10.90;7.70;;;;;;;11.12;100.00;99217.91;110597;1274;22164;-70
2023/04/06 11:01:51;;;;;;;9.20;7.40;;;;;;;11.14;100.00;99219.52;110360;1274;22721;-69
2023/04/06 11:04:20;;;;;;;10.20;7.90;;;;;;;11.14;100.00;99224.36;107439;1274;26611;-68
2023/04/06 11:06:49;;;;;;;11.90;7.70;;;;;;;11.15;100.00;99227.34;107344;1274;24626;-68
2023/04/06 11:09:27;;;;;;;10.90;7.40;;;;;;;11.18;100.00;99224.02;107447;1274;25331;-68
2023/04/06 11:11:56;;;;;;;11.00;7.90;;;;;;;11.21;100.00;99228.92;107367;1274;26488;-68
2023/04/06 11:14:26;;;;;;;9.60;7.00;;;;;;;11.28;100.00;99232.48;107333;1274;25414;-68
2023/04/06 11:16:55;;;;;;;11.40;7.20;;;;;;;11.34;100.00;99233.69;107491;1274;22516;-68
2023/04/06 11:19:23;;;;;;;11.60;9.10;;;;;;;11.43;100.00;99235.76;107345;1274;22527;-68
2023/04/06 11:21:52;;;;;;;11.80;9.30;;;;;;;11.51;100.00;99240.59;107467;1274;22795;-69
2023/04/06 11:24:22;;;;;;;10.70;8.30;;;;;;;11.56;100.00;99243.10;107459;1274;25549;-69
2023/04/06 11:26:54;;;;;;;14.50;10.20;;;;;;;11.61;100.00;99248.53;107501;1274;22543;-68
2023/04/06 11:29:26;;;;;;;21.60;15.10;;;;;;;11.62;100.00;99250.89;107278;1274;25396;-68
2023/04/06 11:31:59;;;;;;;20.30;13.30;;;;;;;11.62;100.00;99252.34;107199;1274;22777;-68